Time;durP1;ratioP1;P1;durP2;ratioP2;P2;SDS_P1;SDS_P2;PMS_P1;PMS_P2;Temp;Humidity;BMP_temperature;BMP_pressure;BME280_temperature;BME280_humidity;BME280_pressure;Samples;Min_cycle;Max_cycle;Signal;HPM_P1;HPM_P2
2023/09/05 00:00:10;;;;;;;4.63;3.95;;;;;;;14.94;94.52;101884.63;5053389;28;20025;-75
2023/09/05 00:02:39;;;;;;;4.35;3.95;;;;;;;14.90;94.95;101891.50;5050605;28;20111;-75
2023/09/05 00:05:07;;;;;;;7.72;4.07;;;;;;;14.90;95.66;101888.78;5052249;28;20029;-75
2023/09/05 00:07:35;;;;;;;4.78;4.38;;;;;;;14.85;96.02;101899.38;5051953;28;20061;-74
2023/09/05 00:10:05;;;;;;;4.85;4.32;;;;;;;14.80;96.32;101893.75;5050841;28;20464;-75
2023/09/05 00:12:30;;;;;;;4.72;4.13;;;;;;;14.76;96.54;101889.75;5050826;28;20033;-75
2023/09/05 00:14:57;;;;;;;5.80;4.32;;;;;;;14.74;97.41;101889.09;5032056;28;20613;-75
2023/09/05 00:17:29;;;;;;;5.40;4.35;;;;;;;14.70;98.02;101885.97;5049995;28;20028;-75
2023/09/05 00:19:58;;;;;;;7.32;4.90;;;;;;;14.72;98.47;101880.34;5052601;28;20109;-75
2023/09/05 00:22:26;;;;;;;5.97;4.28;;;;;;;14.75;97.89;101885.38;5050537;28;20029;-75
2023/09/05 00:24:52;;;;;;;4.68;4.25;;;;;;;14.70;98.01;101889.50;5048503;28;20075;-75
2023/09/05 00:27:17;;;;;;;4.43;4.03;;;;;;;14.65;98.03;101886.50;5050836;28;20576;-76
2023/09/05 00:29:43;;;;;;;5.28;4.78;;;;;;;14.62;98.87;101881.50;5050021;28;20508;-76
2023/09/05 00:32:09;;;;;;;5.20;4.70;;;;;;;14.60;98.58;101891.72;5050631;28;20075;-76
2023/09/05 00:34:36;;;;;;;6.43;5.28;;;;;;;14.60;99.16;101882.72;5049675;28;20116;-76
2023/09/05 00:37:03;;;;;;;6.82;5.53;;;;;;;14.54;99.51;101881.66;5052153;28;20040;-76
2023/09/05 00:39:29;;;;;;;5.63;5.13;;;;;;;14.58;99.31;101888.34;5050962;28;20428;-76
2023/09/05 00:41:56;;;;;;;6.00;5.40;;;;;;;14.55;99.60;101886.91;5048953;28;20560;-76
2023/09/05 00:44:25;;;;;;;6.07;5.47;;;;;;;14.58;99.37;101891.06;5049856;28;20025;-75
2023/09/05 00:46:58;;;;;;;5.35;4.85;;;;;;;14.59;99.06;101891.88;5050850;28;20032;-76
2023/09/05 00:49:27;;;;;;;7.45;5.57;;;;;;;14.56;98.99;101893.13;5033285;28;20028;-76
2023/09/05 00:51:56;;;;;;;7.82;5.70;;;;;;;14.56;99.19;101890.44;5051349;28;20490;-75
2023/09/05 00:54:22;;;;;;;6.70;5.57;;;;;;;14.58;99.19;101892.94;5035939;28;20053;-76
2023/09/05 00:56:50;;;;;;;7.45;5.95;;;;;;;14.59;99.09;101889.19;5066348;28;20050;-75
2023/09/05 00:59:15;;;;;;;6.00;5.40;;;;;;;14.59;98.88;101892.75;5043196;28;20030;-75
2023/09/05 01:01:41;;;;;;;7.60;5.32;;;;;;;14.56;98.96;101887.72;5035793;28;20021;-76
2023/09/05 01:04:06;;;;;;;5.88;5.22;;;;;;;14.55;98.78;101891.47;5052529;28;20094;-75
2023/09/05 01:06:54;;;;;;;6.82;5.97;;;;;;;14.58;98.86;101899.19;5051802;28;20047;-76
2023/09/05 01:09:42;;;;;;;8.05;5.40;;;;;;;14.59;98.79;101897.31;5032318;28;20038;-75
2023/09/05 01:12:07;;;;;;;6.10;5.50;;;;;;;14.56;99.12;101899.38;5048586;28;20025;-76
2023/09/05 01:14:34;;;;;;;7.68;5.50;;;;;;;14.54;98.58;101900.63;5052533;28;20115;-75
2023/09/05 01:17:05;;;;;;;6.07;5.47;;;;;;;14.51;99.00;101895.59;5052132;28;20141;-76
2023/09/05 01:19:31;;;;;;;6.43;5.72;;;;;;;14.44;99.20;101897.44;5035321;28;20485;-75
2023/09/05 01:22:15;;;;;;;7.07;5.82;;;;;;;14.38;99.51;101908.00;5015047;28;20116;-76
2023/09/05 01:24:41;;;;;;;6.88;6.28;;;;;;;14.35;99.98;101902.97;5052228;28;20033;-76
2023/09/05 01:27:07;;;;;;;6.20;5.60;;;;;;;14.36;99.88;101906.53;5032768;28;20036;-75
2023/09/05 01:29:36;;;;;;;7.47;5.97;;;;;;;14.32;100.00;101907.97;5052492;28;20079;-76
2023/09/05 01:32:03;;;;;;;6.40;5.45;;;;;;;14.31;100.00;101906.28;5051396;28;20031;-76
2023/09/05 01:34:28;;;;;;;7.53;5.95;;;;;;;14.29;100.00;101909.19;5048762;28;21325;-75
2023/09/05 01:36:54;;;;;;;8.32;5.78;;;;;;;14.24;100.00;101909.78;5053607;28;20029;-76
2023/09/05 01:39:22;;;;;;;7.65;6.05;;;;;;;14.21;100.00;101906.63;5049364;28;20227;-75
2023/09/05 01:41:51;;;;;;;6.68;5.90;;;;;;;14.18;100.00;101897.03;5053207;28;20025;-76
2023/09/05 01:44:16;;;;;;;6.85;5.50;;;;;;;14.15;100.00;101905.53;5034359;28;20029;-76
2023/09/05 01:46:42;;;;;;;6.07;5.47;;;;;;;14.14;100.00;101900.28;5051607;28;20506;-75
2023/09/05 01:49:09;;;;;;;6.35;5.47;;;;;;;14.07;100.00;101906.50;5049700;28;20021;-75
2023/09/05 01:51:34;;;;;;;6.13;5.53;;;;;;;14.01;100.00;101912.69;5052610;28;20056;-74
2023/09/05 01:54:00;;;;;;;7.10;6.40;;;;;;;13.98;100.00;101902.25;5053751;28;20067;-75
2023/09/05 01:56:25;;;;;;;6.47;5.88;;;;;;;13.95;100.00;101916.16;5056699;28;20037;-75
2023/09/05 01:58:53;;;;;;;6.40;5.70;;;;;;;13.97;100.00;101910.56;5055101;28;20440;-75
2023/09/05 02:01:19;;;;;;;6.82;6.13;;;;;;;13.94;100.00;101914.50;5044130;28;20756;-76
2023/09/05 02:03:46;;;;;;;6.22;5.57;;;;;;;13.91;100.00;101917.59;5046191;28;20025;-76
2023/09/05 02:06:13;;;;;;;6.40;5.80;;;;;;;13.87;100.00;101913.59;5050155;28;21754;-76
2023/09/05 02:08:38;;;;;;;6.20;5.28;;;;;;;13.77;100.00;101914.72;5051141;28;20035;-75
2023/09/05 02:11:09;;;;;;;7.18;5.53;;;;;;;13.77;100.00;101909.31;5053584;22;20084;-75
2023/09/05 02:13:36;;;;;;;6.35;5.75;;;;;;;13.78;100.00;101911.00;5052344;28;20017;-77
2023/09/05 02:16:02;;;;;;;6.55;5.88;;;;;;;13.74;100.00;101907.03;5049375;28;20035;-76
2023/09/05 02:18:27;;;;;;;6.65;6.05;;;;;;;13.69;100.00;101906.75;5049310;28;20032;-76
2023/09/05 02:21:00;;;;;;;6.80;6.13;;;;;;;13.66;100.00;101899.00;5049535;28;20041;-75
2023/09/05 02:23:26;;;;;;;6.78;6.10;;;;;;;13.68;100.00;101904.25;5045542;28;20025;-75
2023/09/05 02:25:58;;;;;;;6.78;6.05;;;;;;;13.66;100.00;101901.72;5050417;28;20034;-75
2023/09/05 02:28:23;;;;;;;7.05;6.13;;;;;;;13.66;100.00;101898.19;5034705;28;20091;-75
2023/09/05 02:30:50;;;;;;;7.93;6.40;;;;;;;13.64;100.00;101906.47;5045000;28;20037;-75
2023/09/05 02:33:15;;;;;;;7.30;6.60;;;;;;;13.59;100.00;101908.94;5054756;28;20061;-75
2023/09/05 02:35:41;;;;;;;7.40;6.03;;;;;;;13.58;100.00;101901.84;5052605;28;20033;-75
2023/09/05 02:38:07;;;;;;;7.25;6.15;;;;;;;13.54;100.00;101903.25;5049419;28;20373;-76
2023/09/05 02:40:32;;;;;;;8.30;6.70;;;;;;;13.50;100.00;101900.09;5049204;28;20037;-75
2023/09/05 02:42:57;;;;;;;7.50;6.38;;;;;;;13.49;100.00;101901.97;5050130;28;20031;-75
2023/09/05 02:45:24;;;;;;;8.13;6.45;;;;;;;13.50;100.00;101902.81;5050725;28;20376;-75
2023/09/05 02:47:49;;;;;;;7.70;6.20;;;;;;;13.48;100.00;101896.75;5048032;28;20803;-75
2023/09/05 02:50:15;;;;;;;7.65;6.85;;;;;;;13.52;100.00;101892.63;5049192;28;20040;-75
2023/09/05 02:52:41;;;;;;;7.25;6.55;;;;;;;13.54;100.00;101889.72;5049030;28;20063;-76
2023/09/05 02:55:06;;;;;;;7.28;6.57;;;;;;;13.56;100.00;101884.97;5029452;28;20079;-75
2023/09/05 02:57:32;;;;;;;7.20;5.97;;;;;;;13.58;100.00;101896.44;5049670;28;20547;-76
2023/09/05 02:59:57;;;;;;;7.55;6.75;;;;;;;13.63;100.00;101883.16;5049381;28;20055;-75
2023/09/05 03:02:23;;;;;;;9.73;7.10;;;;;;;13.70;100.00;101881.38;5051653;28;20084;-75
2023/09/05 03:04:53;;;;;;;7.10;6.38;;;;;;;13.69;100.00;101884.25;5052636;28;20025;-75
2023/09/05 03:07:20;;;;;;;7.95;7.10;;;;;;;13.71;100.00;101883.06;5035455;28;20036;-75
2023/09/05 03:09:49;;;;;;;8.02;6.72;;;;;;;13.71;100.00;101874.94;5033611;28;20033;-76
2023/09/05 03:12:15;;;;;;;8.48;6.55;;;;;;;13.69;100.00;101874.28;5052473;28;20540;-75
2023/09/05 03:14:40;;;;;;;7.50;6.75;;;;;;;13.68;100.00;101875.31;5054358;28;20021;-75
2023/09/05 03:17:07;;;;;;;7.57;6.88;;;;;;;13.66;100.00;101871.97;5054595;28;20032;-75
2023/09/05 03:19:39;;;;;;;8.43;6.88;;;;;;;13.62;100.00;101870.66;5056215;28;20354;-75
2023/09/05 03:22:05;;;;;;;8.07;6.93;;;;;;;13.59;100.00;101863.78;5055734;28;20074;-75
2023/09/05 03:24:32;;;;;;;7.43;6.72;;;;;;;13.52;100.00;101867.44;5054899;28;20025;-75
2023/09/05 03:26:58;;;;;;;8.93;6.47;;;;;;;13.47;100.00;101873.44;5054907;28;20143;-75
2023/09/05 03:29:23;;;;;;;8.35;7.15;;;;;;;13.49;100.00;101879.50;5056098;28;20021;-75
2023/09/05 03:31:48;;;;;;;8.38;6.90;;;;;;;13.46;100.00;101877.16;5047743;28;20103;-75
2023/09/05 03:34:14;;;;;;;7.13;6.13;;;;;;;13.42;100.00;101876.69;5053884;28;20032;-75
2023/09/05 03:36:39;;;;;;;7.32;6.60;;;;;;;13.40;100.00;101878.78;5040637;28;20036;-76
2023/09/05 03:39:07;;;;;;;7.88;6.63;;;;;;;13.36;100.00;101869.31;5054987;28;20124;-75
2023/09/05 03:41:45;;;;;;;7.28;6.57;;;;;;;13.32;100.00;101870.72;5057208;28;20021;-75
2023/09/05 03:44:10;;;;;;;8.15;7.10;;;;;;;13.32;100.00;101870.72;5039301;28;20037;-75
2023/09/05 03:46:36;;;;;;;11.18;7.25;;;;;;;13.29;100.00;101869.25;5054580;28;20043;-75
2023/09/05 03:49:01;;;;;;;9.93;7.50;;;;;;;13.21;100.00;101869.34;5056839;28;20032;-76
2023/09/05 03:51:29;;;;;;;7.85;7.05;;;;;;;13.16;100.00;101875.34;5056064;28;20029;-75
2023/09/05 03:53:56;;;;;;;9.10;7.22;;;;;;;13.15;100.00;101870.94;5055792;28;20064;-75
2023/09/05 03:56:27;;;;;;;8.60;7.70;;;;;;;13.19;100.00;101866.84;5054230;28;20029;-75
2023/09/05 03:58:56;;;;;;;8.60;7.40;;;;;;;13.18;100.00;101867.88;5051127;28;20036;-75
2023/09/05 04:01:21;;;;;;;8.52;7.38;;;;;;;13.22;100.00;101859.38;5064780;28;20055;-75
2023/09/05 04:03:50;;;;;;;7.88;7.07;;;;;;;13.24;100.00;101855.47;5059136;28;20082;-75
2023/09/05 04:06:15;;;;;;;7.88;6.90;;;;;;;13.26;100.00;101855.25;5053598;28;20025;-75
2023/09/05 04:08:45;;;;;;;9.00;7.28;;;;;;;13.24;100.00;101854.63;5054637;28;20025;-76
2023/09/05 04:11:10;;;;;;;9.13;7.10;;;;;;;13.27;100.00;101856.94;5051940;28;20060;-75
2023/09/05 04:13:36;;;;;;;7.72;7.00;;;;;;;13.27;100.00;101856.94;5054818;28;20025;-81
2023/09/05 04:16:04;;;;;;;8.05;7.20;;;;;;;13.25;100.00;101850.88;5051383;28;20448;-75
2023/09/05 04:18:29;;;;;;;8.65;7.07;;;;;;;13.29;100.00;101860.28;5052797;28;20074;-75
2023/09/05 04:20:58;;;;;;;7.55;6.85;;;;;;;13.36;100.00;101855.81;5050465;28;20041;-75
2023/09/05 04:23:25;;;;;;;7.35;6.65;;;;;;;13.41;100.00;101866.94;5051621;28;20108;-74
2023/09/05 04:26:01;;;;;;;7.97;6.40;;;;;;;13.44;100.00;101857.59;5054228;28;20021;-74
2023/09/05 04:28:32;;;;;;;7.00;6.40;;;;;;;13.46;100.00;101863.66;5054265;28;20044;-74
2023/09/05 04:31:02;;;;;;;7.63;6.82;;;;;;;13.55;100.00;101864.34;5064299;22;20065;-75
2023/09/05 04:33:31;;;;;;;9.90;6.30;;;;;;;13.58;100.00;101862.09;5034288;28;20037;-74
2023/09/05 04:36:04;;;;;;;7.20;6.50;;;;;;;13.63;100.00;101861.50;5034236;28;20025;-75
2023/09/05 04:38:32;;;;;;;6.13;5.50;;;;;;;13.62;100.00;101849.88;5016083;28;20057;-75
2023/09/05 04:41:01;;;;;;;8.05;6.38;;;;;;;13.62;100.00;101855.28;5034083;28;20021;-74
2023/09/05 04:43:27;;;;;;;7.35;6.65;;;;;;;13.61;100.00;101850.91;5033722;28;20021;-74
2023/09/05 04:45:55;;;;;;;8.00;6.32;;;;;;;13.63;100.00;101859.66;5046841;28;20031;-74
2023/09/05 04:48:20;;;;;;;7.03;6.32;;;;;;;13.67;100.00;101862.81;5053439;28;20029;-74
2023/09/05 04:50:46;;;;;;;6.55;5.95;;;;;;;13.67;100.00;101849.28;5042412;28;20037;-74
2023/09/05 04:53:11;;;;;;;7.22;6.20;;;;;;;13.68;100.00;101860.97;5031843;28;20037;-73
2023/09/05 04:55:36;;;;;;;6.50;5.80;;;;;;;13.70;100.00;101864.28;5033896;28;20026;-73
2023/09/05 04:58:02;;;;;;;7.82;6.07;;;;;;;13.71;100.00;101853.28;5033596;28;20021;-74
2023/09/05 05:00:31;;;;;;;6.22;5.63;;;;;;;13.75;100.00;101848.31;5046703;28;20032;-74
2023/09/05 05:02:58;;;;;;;6.40;5.80;;;;;;;13.73;100.00;101856.63;5053468;28;20461;-73
2023/09/05 05:05:23;;;;;;;6.55;5.78;;;;;;;13.76;100.00;101855.41;5048557;28;20052;-74
2023/09/05 05:07:49;;;;;;;6.63;5.93;;;;;;;13.77;100.00;101857.91;5033938;28;20091;-73
2023/09/05 05:10:14;;;;;;;7.80;5.75;;;;;;;13.84;100.00;101855.28;5033167;28;20087;-74
2023/09/05 05:12:42;;;;;;;6.35;5.72;;;;;;;13.93;100.00;101850.56;5033148;28;20022;-73
2023/09/05 05:15:08;;;;;;;6.47;5.75;;;;;;;14.07;100.00;101854.22;5045503;28;20029;-74
2023/09/05 05:17:34;;;;;;;7.35;5.75;;;;;;;14.15;100.00;101851.38;5044954;28;20040;-73
2023/09/05 05:19:59;;;;;;;5.43;4.93;;;;;;;14.22;100.00;101851.44;5033785;28;20045;-74
2023/09/05 05:22:25;;;;;;;6.32;5.57;;;;;;;14.29;100.00;101846.91;5033566;28;20480;-74
2023/09/05 05:24:51;;;;;;;6.72;5.57;;;;;;;14.34;100.00;101851.72;5033703;28;20021;-73
2023/09/05 05:27:17;;;;;;;6.00;5.18;;;;;;;14.37;100.00;101857.56;5032841;28;20021;-73
2023/09/05 05:29:43;;;;;;;5.85;5.28;;;;;;;14.42;99.94;101854.25;5044937;28;20142;-74
2023/09/05 05:32:08;;;;;;;6.90;5.18;;;;;;;14.44;99.70;101849.50;5166884;22;20710;-75
2023/09/05 05:34:34;;;;;;;5.95;4.80;;;;;;;14.50;99.26;101858.69;5072624;28;20060;-74
2023/09/05 05:36:59;;;;;;;6.10;5.25;;;;;;;14.56;98.68;101855.19;5073089;28;20021;-74
2023/09/05 05:39:25;;;;;;;7.10;4.78;;;;;;;14.63;98.23;101866.94;5056256;28;20029;-74
2023/09/05 05:41:51;;;;;;;8.35;4.90;;;;;;;14.81;96.78;101868.31;5053266;28;20388;-73
2023/09/05 05:44:16;;;;;;;5.13;4.60;;;;;;;14.87;96.28;101864.78;5070661;28;20029;-73
2023/09/05 05:46:43;;;;;;;6.53;4.78;;;;;;;14.99;95.33;101874.03;5072259;28;20081;-73
2023/09/05 05:49:09;;;;;;;6.03;5.10;;;;;;;15.07;94.54;101878.44;5072818;28;20097;-73
2023/09/05 05:51:35;;;;;;;6.30;4.82;;;;;;;15.15;94.29;101882.88;5054777;28;20032;-73
2023/09/05 05:54:00;;;;;;;6.25;4.93;;;;;;;15.18;94.18;101879.72;5054950;28;20032;-74
2023/09/05 05:56:26;;;;;;;7.65;4.78;;;;;;;15.22;93.92;101881.00;5073056;28;20369;-74
2023/09/05 05:58:51;;;;;;;6.05;4.90;;;;;;;15.27;93.63;101881.22;5071231;28;20495;-73
2023/09/05 06:01:18;;;;;;;6.35;5.18;;;;;;;15.41;93.07;101883.97;5072413;28;20035;-73
2023/09/05 06:03:43;;;;;;;5.55;4.70;;;;;;;15.52;92.41;101879.84;5073418;28;20108;-74
2023/09/05 06:06:09;;;;;;;5.53;4.45;;;;;;;15.77;91.84;101888.25;5072745;28;20137;-74
2023/09/05 06:08:34;;;;;;;6.15;4.60;;;;;;;16.63;90.40;101883.03;5052980;28;20093;-74
2023/09/05 06:10:59;;;;;;;4.50;3.97;;;;;;;18.15;79.87;101887.13;5072579;28;20032;-74
2023/09/05 06:13:28;;;;;;;4.30;3.83;;;;;;;19.70;72.82;101879.94;5072219;28;20103;-74
2023/09/05 06:15:54;;;;;;;6.22;3.95;;;;;;;21.15;66.93;101886.03;5073697;28;20040;-74
2023/09/05 06:18:19;;;;;;;6.70;4.10;;;;;;;21.85;61.14;101880.47;5057106;28;20500;-74
2023/09/05 06:20:48;;;;;;;6.05;3.70;;;;;;;22.45;59.20;101887.22;5063049;28;20024;-74
2023/09/05 06:23:13;;;;;;;4.00;3.67;;;;;;;23.09;57.06;101882.28;5072301;28;20484;-74
2023/09/05 06:25:41;;;;;;;5.13;3.80;;;;;;;23.72;54.76;101881.88;5074010;28;20017;-74
2023/09/05 06:28:06;;;;;;;3.70;3.40;;;;;;;24.42;52.31;101886.56;5073408;28;20028;-74
2023/09/05 06:30:35;;;;;;;5.88;3.67;;;;;;;24.93;50.47;101875.81;5072845;28;20139;-75
2023/09/05 06:33:00;;;;;;;4.15;3.35;;;;;;;24.65;51.01;101880.63;5072338;28;20499;-74
2023/09/05 06:35:26;;;;;;;4.88;3.70;;;;;;;24.94;51.16;101876.66;5071060;28;20498;-75
2023/09/05 06:38:00;;;;;;;4.72;3.25;;;;;;;24.66;51.18;101870.44;5071913;28;20020;-74
2023/09/05 06:40:37;;;;;;;4.47;3.22;;;;;;;25.00;50.09;101874.75;5072303;28;20039;-75
2023/09/05 06:43:03;;;;;;;4.78;3.00;;;;;;;25.57;48.76;101879.34;5074829;28;20009;-75
2023/09/05 06:45:28;;;;;;;5.60;3.08;;;;;;;25.68;48.63;101876.59;5072046;28;20398;-74
2023/09/05 06:47:54;;;;;;;3.35;3.05;;;;;;;25.54;47.26;101882.63;5071215;28;20035;-74
2023/09/05 06:50:19;;;;;;;6.32;3.00;;;;;;;26.27;46.27;101888.19;5059839;28;20025;-75
2023/09/05 06:52:48;;;;;;;5.25;2.58;;;;;;;27.01;44.10;101888.50;5071028;28;20477;-75
2023/09/05 06:55:13;;;;;;;3.10;2.65;;;;;;;27.00;44.11;101892.41;5072677;28;20024;-75
2023/09/05 06:57:39;;;;;;;5.07;2.72;;;;;;;27.03;44.64;101896.53;5070847;28;20181;-75
2023/09/05 07:00:05;;;;;;;4.07;2.80;;;;;;;27.01;44.40;101891.28;5072315;28;20028;-75
2023/09/05 07:02:31;;;;;;;3.92;2.53;;;;;;;26.77;45.15;101893.84;5068543;28;20033;-75
2023/09/05 07:04:56;;;;;;;3.92;2.60;;;;;;;26.94;43.87;101899.06;5067631;28;20118;-75
2023/09/05 07:07:22;;;;;;;3.50;2.38;;;;;;;27.07;44.09;101898.44;5066798;28;20034;-75
2023/09/05 07:09:53;;;;;;;2.83;2.50;;;;;;;26.42;45.15;101899.19;5061115;28;20021;-75
2023/09/05 07:12:19;;;;;;;3.10;2.60;;;;;;;26.84;44.75;101899.09;5071386;28;20028;-75
2023/09/05 07:14:44;;;;;;;2.65;2.38;;;;;;;27.36;43.22;101894.13;5076471;28;20016;-75
2023/09/05 07:17:12;;;;;;;3.17;2.35;;;;;;;28.32;40.75;101897.56;5073975;28;20036;-75
2023/09/05 07:19:39;;;;;;;3.40;2.72;;;;;;;27.88;42.64;101894.63;5069058;28;20032;-75
2023/09/05 07:22:04;;;;;;;2.80;2.30;;;;;;;27.89;42.80;101885.19;5071097;28;20029;-75
2023/09/05 07:24:32;;;;;;;2.83;2.50;;;;;;;27.75;42.31;101879.50;5072068;28;20021;-75
2023/09/05 07:26:58;;;;;;;3.83;2.45;;;;;;;27.45;42.39;101888.81;5071479;28;20024;-75
2023/09/05 07:29:23;;;;;;;3.45;2.15;;;;;;;27.68;42.49;101890.06;5071282;28;20024;-75
2023/09/05 07:31:48;;;;;;;2.53;2.33;;;;;;;28.16;42.01;101886.66;5071919;28;20024;-75
2023/09/05 07:34:14;;;;;;;2.67;2.30;;;;;;;28.38;41.06;101885.31;5069800;28;20044;-75
2023/09/05 07:36:40;;;;;;;3.55;2.40;;;;;;;28.41;41.30;101877.25;5071143;28;20430;-75
2023/09/05 07:39:05;;;;;;;3.15;2.35;;;;;;;28.79;40.17;101878.50;5056430;28;20045;-75
2023/09/05 07:41:31;;;;;;;2.40;2.20;;;;;;;29.38;40.20;101873.56;5050982;28;20040;-75
2023/09/05 07:43:57;;;;;;;4.53;2.30;;;;;;;29.04;39.88;101875.38;5050838;28;20028;-75
2023/09/05 07:46:22;;;;;;;2.45;1.80;;;;;;;29.72;38.08;101869.69;5051776;28;20021;-74
2023/09/05 07:48:48;;;;;;;2.00;1.90;;;;;;;29.64;38.30;101870.41;5051450;28;20108;-73
2023/09/05 07:51:13;;;;;;;2.50;1.90;;;;;;;30.01;37.49;101874.22;5065464;28;20089;-73
2023/09/05 07:53:39;;;;;;;3.63;2.03;;;;;;;29.61;38.01;101871.00;5071281;28;20082;-73
2023/09/05 07:56:04;;;;;;;2.85;2.10;;;;;;;30.51;36.85;101870.78;5071276;28;20035;-73
2023/09/05 07:58:30;;;;;;;3.28;2.15;;;;;;;30.76;36.53;101867.81;5071883;28;20024;-73
2023/09/05 08:00:56;;;;;;;2.10;1.92;;;;;;;31.34;35.00;101868.22;5074074;28;20431;-74
2023/09/05 08:03:22;;;;;;;3.45;2.10;;;;;;;30.54;36.12;101852.66;5073184;28;20025;-73
2023/09/05 08:05:51;;;;;;;3.08;2.10;;;;;;;30.40;36.64;101863.78;5064914;28;20025;-74
2023/09/05 08:08:17;;;;;;;6.35;2.30;;;;;;;31.10;35.80;101858.16;5073822;28;20585;-74
2023/09/05 08:10:43;;;;;;;2.78;2.08;;;;;;;31.53;35.04;101868.88;5075651;28;20040;-74
2023/09/05 08:13:10;;;;;;;3.30;2.00;;;;;;;31.40;35.01;101858.63;5074406;28;20020;-73
2023/09/05 08:15:39;;;;;;;3.30;1.90;;;;;;;31.50;34.76;101858.34;5070169;28;20446;-74
2023/09/05 08:18:05;;;;;;;2.10;1.90;;;;;;;31.40;34.44;101862.22;5055321;28;20084;-74
2023/09/05 08:20:33;;;;;;;2.40;1.80;;;;;;;31.28;35.30;101859.97;5064321;28;20453;-74
2023/09/05 08:23:01;;;;;;;2.72;1.90;;;;;;;31.96;33.87;101855.56;5072564;28;20245;-74
2023/09/05 08:25:26;;;;;;;3.15;2.13;;;;;;;32.48;32.96;101852.22;5075106;28;20020;-74
2023/09/05 08:27:53;;;;;;;3.50;2.30;;;;;;;32.79;30.99;101849.34;5076240;28;20086;-74
2023/09/05 08:30:24;;;;;;;2.33;2.00;;;;;;;32.07;32.75;101845.78;5075744;28;20078;-74
2023/09/05 08:32:50;;;;;;;3.83;2.10;;;;;;;32.58;31.83;101843.53;5056514;28;20033;-74
2023/09/05 08:35:18;;;;;;;2.63;2.03;;;;;;;32.40;31.73;101842.69;5073118;28;20016;-74
2023/09/05 08:37:44;;;;;;;3.67;1.80;;;;;;;32.62;31.59;101852.09;5072327;28;20044;-74
2023/09/05 08:40:11;;;;;;;4.13;2.20;;;;;;;32.19;31.51;101843.22;5075274;28;20162;-74
2023/09/05 08:42:37;;;;;;;5.68;2.08;;;;;;;33.49;30.63;101831.00;5074074;28;20029;-74
2023/09/05 08:45:04;;;;;;;2.78;1.88;;;;;;;33.23;30.16;101840.19;5072621;28;20041;-74
2023/09/05 08:47:30;;;;;;;3.13;1.80;;;;;;;33.36;30.87;101844.81;5057186;28;20043;-76
2023/09/05 08:49:56;;;;;;;2.85;1.88;;;;;;;34.42;29.04;101839.78;5073622;28;20032;-74
2023/09/05 08:52:23;;;;;;;4.30;2.05;;;;;;;34.12;28.64;101844.47;5073071;28;20036;-74
2023/09/05 08:54:49;;;;;;;2.67;2.03;;;;;;;34.06;29.24;101843.06;5041101;28;20511;-74
2023/09/05 08:57:17;;;;;;;2.72;1.90;;;;;;;32.15;30.66;101846.97;5054993;28;20029;-74
2023/09/05 08:59:42;;;;;;;2.75;2.13;;;;;;;32.49;32.20;101846.28;5018901;28;20037;-75
2023/09/05 09:02:09;;;;;;;2.65;1.90;;;;;;;33.80;29.73;101846.72;5054187;28;20032;-74
2023/09/05 09:04:48;;;;;;;3.63;1.90;;;;;;;34.47;28.50;101847.16;5060913;28;20040;-74
2023/09/05 09:07:14;;;;;;;2.47;1.92;;;;;;;34.95;28.01;101849.84;5072732;28;20119;-74
2023/09/05 09:09:40;;;;;;;2.13;1.90;;;;;;;34.57;29.09;101843.97;5073720;28;20023;-74
2023/09/05 09:12:07;;;;;;;4.25;1.90;;;;;;;35.08;27.34;101848.75;5072053;28;20391;-74
2023/09/05 09:14:33;;;;;;;2.45;2.00;;;;;;;34.27;28.42;101843.13;5072671;28;20047;-75
2023/09/05 09:17:02;;;;;;;2.38;1.70;;;;;;;35.39;26.72;101846.66;5074423;28;20104;-74
2023/09/05 09:19:30;;;;;;;3.13;2.00;;;;;;;34.80;27.59;101842.84;5071223;28;20032;-74
2023/09/05 09:21:59;;;;;;;6.63;1.90;;;;;;;33.56;28.61;101836.91;5059773;28;20091;-74
2023/09/05 09:24:30;;;;;;;2.08;1.83;;;;;;;34.64;28.39;101845.41;5054364;28;20113;-74
2023/09/05 09:26:55;;;;;;;3.88;2.05;;;;;;;34.51;28.22;101842.53;5034889;28;20082;-75
2023/09/05 09:29:21;;;;;;;2.05;1.85;;;;;;;34.90;28.10;101846.06;5053263;28;20025;-74
2023/09/05 09:31:47;;;;;;;2.15;1.75;;;;;;;34.73;27.59;101835.78;5054046;28;20025;-74
2023/09/05 09:34:15;;;;;;;5.60;2.10;;;;;;;34.84;28.04;101839.00;5058850;28;20512;-74
2023/09/05 09:36:44;;;;;;;2.80;1.88;;;;;;;34.52;28.26;101832.13;5035545;28;20416;-74
2023/09/05 09:39:10;;;;;;;2.08;1.85;;;;;;;35.18;27.76;101828.72;5052320;28;20028;-75
2023/09/05 09:41:46;;;;;;;3.58;1.92;;;;;;;34.80;27.60;101832.44;5052579;28;20033;-74
2023/09/05 09:44:32;;;;;;;2.10;1.80;;;;;;;34.45;27.93;101829.88;5053089;28;20100;-74
2023/09/05 09:46:58;;;;;;;3.50;1.80;;;;;;;34.10;28.78;101827.22;5059787;28;20069;-74
2023/09/05 09:49:25;;;;;;;2.03;1.83;;;;;;;34.06;28.18;101820.69;5071759;28;20098;-75
2023/09/05 09:51:57;;;;;;;4.00;2.10;;;;;;;33.38;29.11;101822.97;5072455;28;20025;-74
2023/09/05 09:54:32;;;;;;;3.15;1.75;;;;;;;34.19;28.86;101828.03;5071808;28;20567;-74
2023/09/05 09:57:03;;;;;;;3.67;1.75;;;;;;;34.99;27.70;101828.38;5069379;28;20028;-74
2023/09/05 09:59:35;;;;;;;3.03;1.90;;;;;;;34.72;27.79;101824.97;5109778;22;20048;-74
2023/09/05 10:02:04;;;;;;;2.30;1.85;;;;;;;34.84;28.14;101827.81;5073338;28;20024;-74
2023/09/05 10:04:29;;;;;;;3.00;1.90;;;;;;;35.77;27.12;101832.44;5043918;28;20428;-74
2023/09/05 10:06:55;;;;;;;4.30;1.90;;;;;;;35.11;28.02;101819.25;5040607;28;20027;-72
2023/09/05 10:09:20;;;;;;;2.90;1.77;;;;;;;35.06;27.61;101825.88;5061085;28;20464;-74
2023/09/05 10:11:47;;;;;;;2.80;1.85;;;;;;;35.15;26.96;101820.19;5060737;28;20040;-74
2023/09/05 10:14:12;;;;;;;3.70;1.90;;;;;;;35.51;26.98;101805.53;5050902;28;20031;-74
2023/09/05 10:16:40;;;;;;;2.45;1.90;;;;;;;35.43;27.31;101814.84;5054963;28;20360;-74
2023/09/05 10:19:05;;;;;;;6.28;1.98;;;;;;;35.30;27.54;101813.16;5070992;28;20476;-74
2023/09/05 10:21:32;;;;;;;2.35;1.73;;;;;;;35.04;27.65;101803.81;5067102;28;20040;-74
2023/09/05 10:23:58;;;;;;;2.55;1.83;;;;;;;34.88;28.15;101798.00;5034406;28;20031;-74
2023/09/05 10:26:23;;;;;;;2.63;1.73;;;;;;;35.67;27.57;101800.09;5017790;28;20736;-74
2023/09/05 10:28:51;;;;;;;2.15;1.73;;;;;;;35.76;26.76;101800.00;5054926;28;20024;-74
2023/09/05 10:31:18;;;;;;;3.50;1.88;;;;;;;35.42;27.92;101799.19;5054895;28;20426;-74
2023/09/05 10:33:45;;;;;;;2.88;1.80;;;;;;;36.70;26.85;101794.63;5072175;28;20063;-74
2023/09/05 10:36:41;;;;;;;2.70;1.80;;;;;;;35.53;27.65;101793.16;5056962;28;20112;-74
2023/09/05 10:39:32;;;;;;;3.25;2.00;;;;;;;36.54;26.47;101796.50;5052547;28;20023;-75
2023/09/05 10:41:57;;;;;;;2.70;1.63;;;;;;;36.19;26.84;101799.78;5034813;28;20032;-75
2023/09/05 10:44:24;;;;;;;3.17;1.70;;;;;;;36.15;26.55;101798.88;5037981;28;20037;-75
2023/09/05 10:46:52;;;;;;;1.73;1.63;;;;;;;36.07;26.69;101795.84;5071634;28;20028;-75
2023/09/05 10:49:17;;;;;;;1.95;1.65;;;;;;;37.37;25.66;101795.31;5072122;28;20368;-75
2023/09/05 10:52:14;;;;;;;2.63;1.70;;;;;;;37.17;25.19;101798.78;5053484;28;20028;-75
2023/09/05 10:54:41;;;;;;;1.90;1.70;;;;;;;37.12;25.58;101798.25;5072192;28;20043;-75
2023/09/05 10:57:40;;;;;;;2.67;1.60;;;;;;;36.86;25.98;101794.69;5070480;28;20163;-75
2023/09/05 11:00:41;;;;;;;3.78;1.70;;;;;;;37.34;25.76;101802.44;5224349;22;20059;-75
2023/09/05 11:03:09;;;;;;;3.97;1.73;;;;;;;37.66;24.50;101798.91;5016227;28;20091;-75
2023/09/05 11:05:35;;;;;;;3.42;1.90;;;;;;;37.21;25.93;101804.53;5051822;28;20021;-75
2023/09/05 11:08:01;;;;;;;2.20;1.70;;;;;;;37.73;24.69;101790.66;5034606;28;20047;-75
2023/09/05 11:10:29;;;;;;;4.72;1.90;;;;;;;38.65;23.66;101803.72;5050668;28;20025;-75
2023/09/05 11:12:56;;;;;;;2.42;1.83;;;;;;;37.40;24.97;101801.03;5051278;28;20120;-76
2023/09/05 11:15:31;;;;;;;1.98;1.77;;;;;;;37.05;25.30;101795.25;5038273;28;20029;-75
2023/09/05 11:18:00;;;;;;;2.10;1.73;;;;;;;38.15;24.10;101800.56;5032512;28;20029;-75
2023/09/05 11:20:39;;;;;;;3.55;1.80;;;;;;;37.88;24.54;101797.44;5032923;28;20079;-75
2023/09/05 11:23:22;;;;;;;2.83;1.63;;;;;;;38.21;24.26;101808.34;5050660;28;20032;-75